createdAt,value
2022-11-18T00:01:46.587Z,99429.75
2022-11-18T00:04:14.351Z,99435.13
2022-11-18T00:06:42.067Z,99431.63
2022-11-18T00:09:09.906Z,99440.50
2022-11-18T00:11:56.616Z,99435.66
2022-11-18T00:14:27.512Z,99441.28
2022-11-18T00:16:59.171Z,99443.44
2022-11-18T00:19:28.917Z,99445.56
2022-11-18T00:21:57.015Z,99447.19
2022-11-18T00:24:25.108Z,99439.13
2022-11-18T00:26:54.591Z,99449.88
2022-11-18T00:29:23.260Z,99451.22
2022-11-18T00:31:51.314Z,99455.78
2022-11-18T00:34:19.575Z,99463.84
2022-11-18T00:36:48.254Z,99455.78
2022-11-18T00:39:18.314Z,99461.97
2022-11-18T00:42:04.198Z,99466.56
2022-11-18T00:44:33.302Z,99470.56
2022-11-18T00:47:01.084Z,99471.09
2022-11-18T00:49:28.866Z,99470.03
2022-11-18T00:51:56.567Z,99474.84
2022-11-18T00:54:24.289Z,99484.81
2022-11-18T00:56:52.002Z,99482.13
2022-11-18T00:59:20.098Z,99478.03
2022-11-18T01:01:49.877Z,99491.25
2022-11-18T01:04:18.129Z,99496.63
2022-11-18T01:06:45.902Z,99500.38
2022-11-18T01:09:13.614Z,99499.59
2022-11-18T01:11:58.752Z,99503.88
2022-11-18T01:14:26.551Z,99515.19
2022-11-18T01:16:56.801Z,99507.38
2022-11-18T01:19:25.105Z,99507.38
2022-11-18T01:21:52.805Z,99516.00
2022-11-18T01:24:20.555Z,99520.31
2022-11-18T01:26:48.449Z,99517.88
2022-11-18T01:29:16.370Z,99529.47
2022-11-18T01:32:08.779Z,99534.03
2022-11-18T01:34:33.305Z,99532.97
2022-11-18T01:37:01.055Z,99536.47
2022-11-18T01:39:29.494Z,99537.53
2022-11-18T01:41:57.170Z,99543.72
2022-11-18T01:45:00.728Z,99542.66
2022-11-18T01:47:31.946Z,99555.28
2022-11-18T01:50:01.862Z,99553.66
2022-11-18T01:52:30.575Z,99549.91
2022-11-18T01:55:02.705Z,99553.66
2022-11-18T01:57:32.457Z,99557.16
2022-11-18T02:00:03.833Z,99555.28
2022-11-18T02:02:34.851Z,99555.56
2022-11-18T02:05:05.575Z,99550.16
2022-11-18T02:07:35.452Z,99560.13
2022-11-18T02:10:06.334Z,99562.00
2022-11-18T02:12:34.829Z,99564.44
2022-11-18T02:15:03.746Z,99564.44
2022-11-18T02:17:43.032Z,99569.00
2022-11-18T02:20:30.873Z,99561.19
2022-11-18T02:23:18.136Z,99570.88
2022-11-18T02:26:02.820Z,99574.63
2022-11-18T02:28:40.078Z,99575.44
2022-11-18T02:31:16.499Z,99578.41
2022-11-18T02:33:50.819Z,99586.47
2022-11-18T02:36:22.004Z,99585.66
2022-11-18T02:38:55.182Z,99592.66
2022-11-18T02:41:26.692Z,99584.84
2022-11-18T02:43:57.536Z,99592.66
2022-11-18T02:46:29.900Z,99599.09
2022-11-18T02:48:58.290Z,99604.22
2022-11-18T02:51:28.622Z,99599.09
2022-11-18T02:53:59.868Z,99599.09
2022-11-18T02:56:28.543Z,99602.59
2022-11-18T02:58:56.296Z,99612.28
2022-11-18T03:01:29.561Z,99601.78
2022-11-18T03:03:57.795Z,99610.69
2022-11-18T03:06:30.898Z,99613.38
2022-11-18T03:09:09.051Z,99612.81
2022-11-18T03:11:46.238Z,99611.19
2022-11-18T03:14:25.195Z,99617.38
2022-11-18T03:17:00.685Z,99628.13
2022-11-18T03:19:48.904Z,99620.31
2022-11-18T03:22:21.492Z,99620.88
2022-11-18T03:24:56.155Z,99627.06
2022-11-18T03:27:28.726Z,99628.69
2022-11-18T03:30:03.387Z,99637.03
2022-11-18T03:32:37.914Z,99644.03
2022-11-18T03:35:08.851Z,99643.47
2022-11-18T03:37:37.938Z,99648.03
2022-11-18T03:40:13.153Z,99645.34
2022-11-18T03:42:45.131Z,99649.66
2022-11-18T03:45:17.903Z,99655.03
2022-11-18T03:47:52.472Z,99662.28
2022-11-18T03:50:23.843Z,99659.59
2022-11-18T03:52:54.398Z,99662.56
2022-11-18T03:55:26.444Z,99666.06
2022-11-18T03:58:01.307Z,99663.63
2022-11-18T04:00:34.695Z,99675.19
2022-11-18T04:03:03.821Z,99678.94
2022-11-18T04:05:34.600Z,99681.63
2022-11-18T04:08:05.909Z,99681.63
2022-11-18T04:10:40.142Z,99695.09
2022-11-18T04:13:11.328Z,99694.25
2022-11-18T04:15:40.510Z,99691.84
2022-11-18T04:18:09.897Z,99692.38
2022-11-18T04:20:38.003Z,99699.09
2022-11-18T04:23:06.078Z,99713.34
2022-11-18T04:25:33.795Z,99703.41
2022-11-18T04:28:01.556Z,99707.16
2022-11-18T04:30:29.775Z,99710.66
2022-11-18T04:32:57.788Z,99706.00
2022-11-18T04:35:27.292Z,99718.69
2022-11-18T04:37:55.243Z,99720.56
2022-11-18T04:40:22.962Z,99727.81
2022-11-18T04:42:50.630Z,99726.19
2022-11-18T04:45:18.471Z,99734.50
2022-11-18T04:47:46.232Z,99734.75
2022-11-18T04:50:13.908Z,99735.56
2022-11-18T04:52:43.415Z,99740.13
2022-11-18T04:55:11.072Z,99742.25
2022-11-18T04:57:38.793Z,99744.72
2022-11-18T05:00:07.916Z,99742.25
2022-11-18T05:02:35.646Z,99741.72
2022-11-18T05:05:03.356Z,99756.53
2022-11-18T05:07:31.063Z,99741.09
2022-11-18T05:10:00.523Z,99754.91
2022-11-18T05:12:47.016Z,99755.97
2022-11-18T05:15:14.677Z,99765.09
2022-11-18T05:17:42.368Z,99769.66
2022-11-18T05:20:11.167Z,99761.84
2022-11-18T05:22:38.854Z,99769.91
2022-11-18T05:25:09.045Z,99772.84
2022-11-18T05:27:36.720Z,99777.66
2022-11-18T05:30:05.166Z,99777.91
2022-11-18T05:32:32.862Z,99781.41
2022-11-18T05:35:00.563Z,99778.16
2022-11-18T05:37:28.272Z,99783.53
2022-11-18T05:39:55.891Z,99781.91
2022-11-18T05:42:38.820Z,99786.50
2022-11-18T05:45:07.276Z,99801.81
2022-11-18T05:47:54.988Z,99799.13
2022-11-18T05:50:22.702Z,99801.81
2022-11-18T05:52:50.408Z,99807.19
2022-11-18T05:55:20.585Z,99808.00
2022-11-18T05:57:49.598Z,99815.50
2022-11-18T06:00:18.677Z,99820.31
2022-11-18T06:02:49.468Z,99817.38
2022-11-18T06:05:19.927Z,99821.38
2022-11-18T06:07:47.642Z,99821.94
2022-11-18T06:10:21.203Z,99823.75
2022-11-18T06:12:53.208Z,99823.56
2022-11-18T06:15:23.868Z,99826.19
2022-11-18T06:17:55.976Z,99835.63
2022-11-18T06:20:23.940Z,99833.44
2022-11-18T06:22:54.781Z,99846.31
2022-11-18T06:25:22.695Z,99846.88
2022-11-18T06:27:55.019Z,99845.25
2022-11-18T06:30:22.757Z,99859.50
2022-11-18T06:32:50.524Z,99858.69
2022-11-18T06:35:18.203Z,99874.81
2022-11-18T06:37:45.966Z,99862.75
2022-11-18T06:40:14.312Z,99872.59
2022-11-18T06:42:59.358Z,99874.09
2022-11-18T06:45:28.507Z,99870.84
2022-11-18T06:47:58.069Z,99879.84
2022-11-18T06:50:25.758Z,99874.53
2022-11-18T06:52:53.514Z,99886.03
2022-11-18T06:55:21.302Z,99884.91
2022-11-18T06:57:48.971Z,99887.56
2022-11-18T07:00:17.887Z,99898.50
2022-11-18T07:02:46.920Z,99897.38
2022-11-18T07:05:14.638Z,99901.31
2022-11-18T07:07:42.683Z,99912.06
2022-11-18T07:10:10.990Z,99913.06
2022-11-18T07:12:38.743Z,99916.81
2022-11-18T07:15:07.258Z,99923.50
2022-11-18T07:17:35.037Z,99922.94
2022-11-18T07:20:04.515Z,99928.50
2022-11-18T07:22:32.147Z,99935.19
2022-11-18T07:24:59.868Z,99937.28
2022-11-18T07:27:27.539Z,99940.47
2022-11-18T07:29:55.247Z,99935.59
2022-11-18T07:32:24.028Z,99936.56
2022-11-18T07:34:51.750Z,99937.06
2022-11-18T07:37:20.763Z,99944.31
2022-11-18T07:39:48.534Z,99943.75
2022-11-18T07:42:16.441Z,99954.75
2022-11-18T07:44:44.167Z,99963.06
2022-11-18T07:47:11.835Z,99959.56
2022-11-18T07:49:39.518Z,99961.44
2022-11-18T07:52:07.173Z,99961.66
2022-11-18T07:54:36.224Z,99967.28
2022-11-18T07:57:03.926Z,99969.72
2022-11-18T07:59:31.605Z,99978.03
2022-11-18T08:02:00.114Z,99986.66
2022-11-18T08:04:27.877Z,99982.03
2022-11-18T08:06:55.627Z,99984.94
2022-11-18T08:09:23.386Z,99979.97
2022-11-18T08:11:52.684Z,99991.59
2022-11-18T08:14:22.009Z,100002.31
2022-11-18T08:16:49.671Z,99995.25
2022-11-18T08:19:17.703Z,99998.91
2022-11-18T08:21:45.680Z,100012.56
2022-11-18T08:24:13.825Z,100008.94
2022-11-18T08:26:41.516Z,100010.09
2022-11-18T08:29:10.723Z,100019.34
2022-11-18T08:31:38.474Z,100016.44
2022-11-18T08:34:08.108Z,100023.81
2022-11-18T08:36:37.676Z,100023.81
2022-11-18T08:39:08.216Z,100021.03
2022-11-18T08:41:37.592Z,100019.53
2022-11-18T08:44:06.750Z,100024.78
2022-11-18T08:46:35.800Z,100015.44
2022-11-18T08:49:03.858Z,100014.25
2022-11-18T08:51:31.825Z,100020.88
2022-11-18T08:53:59.809Z,100000.50
2022-11-18T08:56:27.570Z,100016.16
2022-11-18T08:58:55.450Z,100025.53
2022-11-18T09:01:23.857Z,100015.44
2022-11-18T09:03:53.039Z,100041.88
2022-11-18T09:06:24.772Z,100037.22
2022-11-18T09:08:53.380Z,100047.66
2022-11-18T09:11:23.331Z,100049.47
2022-11-18T09:14:38.973Z,100051.34
2022-11-18T09:16:41.816Z,100047.84
2022-11-18T09:19:40.102Z,100050.78
2022-11-18T09:21:58.537Z,100046.22
2022-11-18T09:24:26.249Z,100047.28
2022-11-18T09:26:54.247Z,100055.59
2022-11-18T09:29:25.419Z,100057.72
2022-11-18T09:31:53.579Z,100058.84
2022-11-18T09:34:22.876Z,100062.59
2022-11-18T09:36:51.122Z,100073.59
2022-11-18T09:39:19.032Z,100071.16
2022-11-18T09:41:48.470Z,100083.78
2022-11-18T09:44:41.723Z,100089.41
2022-11-18T09:47:19.143Z,100097.50
2022-11-18T09:49:50.049Z,100098.53
2022-11-18T09:52:22.800Z,100102.84
2022-11-18T09:54:51.472Z,100103.66
2022-11-18T09:57:21.942Z,100110.38
2022-11-18T09:59:49.709Z,100109.50
2022-11-18T10:02:43.563Z,100119.97
2022-11-18T10:05:19.323Z,100120.19
2022-11-18T10:08:10.720Z,100122.06
2022-11-18T10:10:46.830Z,100121.09
2022-11-18T10:13:23.566Z,100112.84
2022-11-18T10:16:01.080Z,100125.34
2022-11-18T10:21:41.284Z,100123.78
2022-11-18T10:24:15.732Z,100128.81
2022-11-18T10:26:43.713Z,100123.53
2022-11-18T10:29:11.641Z,100123.06
2022-11-18T10:31:40.261Z,100126.91
2022-11-18T10:34:12.050Z,100124.91
2022-11-18T10:36:41.377Z,100138.81
2022-11-18T10:39:14.762Z,100132.31
2022-11-18T10:41:54.179Z,100137.56
2022-11-18T10:44:39.230Z,100135.88
2022-11-18T10:47:29.470Z,100142.84
2022-11-18T10:50:00.234Z,100141.16
2022-11-18T10:52:30.955Z,100141.66
2022-11-18T10:55:22.209Z,100143.78
2022-11-18T10:57:53.626Z,100141.00
2022-11-18T11:00:38.295Z,100149.34
2022-11-18T11:03:34.481Z,100147.38
2022-11-18T11:06:37.956Z,100149.00
2022-11-18T11:09:10.167Z,100159.69
2022-11-18T11:11:40.062Z,100156.59
2022-11-18T11:14:18.069Z,100154.19
2022-11-18T11:16:52.907Z,100162.13
2022-11-18T11:19:24.835Z,100158.56
2022-11-18T11:21:52.860Z,100148.41
2022-11-18T11:24:25.879Z,100159.19
2022-11-18T11:30:16.997Z,100164.06
2022-11-18T11:33:10.109Z,100163.13
2022-11-18T11:35:48.065Z,100174.59
2022-11-18T11:38:20.402Z,100167.75
2022-11-18T11:40:59.982Z,100173.91
2022-11-18T11:43:36.642Z,100171.69
2022-11-18T11:46:20.749Z,100165.78
2022-11-18T11:48:58.701Z,100175.41
2022-11-18T11:51:34.310Z,100167.03
2022-11-18T11:54:31.337Z,100178.28
2022-11-18T11:57:05.853Z,100179.34
2022-11-18T11:59:45.844Z,100177.16
2022-11-18T12:02:30.795Z,100168.00
2022-11-18T12:05:04.134Z,100179.84
2022-11-18T12:07:37.111Z,100177.41
2022-11-18T12:10:18.753Z,100174.63
2022-11-18T12:12:56.174Z,100188.16
2022-11-18T12:15:41.525Z,100184.91
2022-11-18T12:18:18.119Z,100184.91
2022-11-18T12:20:47.228Z,100184.09
2022-11-18T12:23:21.370Z,100182.97
2022-11-18T12:26:04.171Z,100180.84
2022-11-18T12:28:36.814Z,100190.38
2022-11-18T12:31:34.292Z,100186.22
2022-11-18T12:34:05.780Z,100192.97
2022-11-18T12:36:35.110Z,100185.63
2022-11-18T12:39:35.858Z,100184.81
2022-11-18T12:42:22.809Z,100176.16
2022-11-18T12:44:54.393Z,100184.13
2022-11-18T12:47:51.836Z,100188.84
2022-11-18T12:50:19.677Z,100192.13
2022-11-18T12:52:57.384Z,100192.38
2022-11-18T12:55:33.636Z,100195.50
2022-11-18T12:58:01.541Z,100192.13
2022-11-18T13:00:52.391Z,100197.91
2022-11-18T13:03:26.115Z,100197.81
2022-11-18T13:06:02.505Z,100207.16
2022-11-18T13:08:30.902Z,100199.25
2022-11-18T13:11:26.639Z,100211.03
2022-11-18T13:14:15.899Z,100202.88
2022-11-18T13:17:06.075Z,100205.50
2022-11-18T13:19:33.995Z,100215.16
2022-11-18T13:22:20.656Z,100209.13
2022-11-18T13:24:51.017Z,100215.34
2022-11-18T13:27:30.555Z,100208.56
2022-11-18T13:30:05.183Z,100210.44
2022-11-18T13:32:34.356Z,100211.50
2022-11-18T13:35:12.546Z,100214.78
2022-11-18T13:37:51.380Z,100219.91
2022-11-18T13:40:25.688Z,100218.84
2022-11-18T13:42:53.363Z,100214.78
2022-11-18T13:45:22.670Z,100232.06
2022-11-18T13:47:53.859Z,100224.47
2022-11-18T13:50:27.623Z,100227.19
2022-11-18T13:53:07.245Z,100230.13
2022-11-18T13:55:39.335Z,100231.19
2022-11-18T13:58:28.299Z,100232.00
2022-11-18T14:00:57.762Z,100229.31
2022-11-18T14:03:31.120Z,100236.06
2022-11-18T14:05:59.647Z,100235.81
2022-11-18T14:08:29.352Z,100237.47
2022-11-18T14:10:57.702Z,100236.06
2022-11-18T14:13:28.495Z,100233.38
2022-11-18T14:15:58.131Z,100236.31
2022-11-18T14:18:32.192Z,100244.66
2022-11-18T14:21:00.809Z,100237.63
2022-11-18T14:23:31.277Z,100238.94
2022-11-18T14:26:00.911Z,100228.84
2022-11-18T14:28:30.283Z,100242.94
2022-11-18T14:31:00.859Z,100246.72
2022-11-18T14:33:31.492Z,100247.78
2022-11-18T14:36:01.048Z,100252.97
2022-11-18T14:39:04.028Z,100248.56
2022-11-18T14:41:49.594Z,100261.25
2022-11-18T14:44:17.472Z,100258.50
2022-11-18T14:46:47.492Z,100255.38
2022-11-18T14:49:19.388Z,100263.94
2022-11-18T14:51:47.386Z,100265.22
2022-11-18T14:54:20.750Z,100267.41
2022-11-18T14:56:55.515Z,100270.88
2022-11-18T14:59:23.302Z,100272.03
2022-11-18T15:01:51.262Z,100273.03
2022-11-18T15:04:21.819Z,100283.72
2022-11-18T15:06:49.816Z,100278.44
2022-11-18T15:09:17.645Z,100282.38
2022-11-18T15:11:45.412Z,100284.19
2022-11-18T15:14:13.168Z,100293.84
2022-11-18T15:16:40.869Z,100288.38
2022-11-18T15:19:14.722Z,100296.97
2022-11-18T15:21:43.831Z,100302.28
2022-11-18T15:24:11.541Z,100299.25
2022-11-18T15:26:42.476Z,100301.38
2022-11-18T15:29:16.917Z,100295.44
2022-11-18T15:31:44.637Z,100299.44
2022-11-18T15:34:12.291Z,100298.88
2022-11-18T15:36:40.092Z,100302.06
2022-11-18T15:39:11.107Z,100304.41
2022-11-18T15:41:40.656Z,100311.94
2022-11-18T15:44:10.220Z,100305.72
2022-11-18T15:46:37.910Z,100311.38
2022-11-18T15:49:08.237Z,100304.59
2022-11-18T15:51:37.410Z,100312.66
2022-11-18T15:54:05.230Z,100311.84
2022-11-18T15:56:34.474Z,100316.66
2022-11-18T15:59:04.020Z,100314.78
2022-11-18T16:01:34.136Z,100314.47
2022-11-18T16:04:02.420Z,100311.53
2022-11-18T16:06:30.130Z,100315.28
2022-11-18T16:09:00.256Z,100314.47
2022-11-18T16:11:47.081Z,100307.72
2022-11-18T16:14:18.222Z,100315.47
2022-11-18T16:16:48.433Z,100315.81
2022-11-18T16:19:19.001Z,100319.03
2022-11-18T16:21:48.908Z,100319.31
2022-11-18T16:24:19.041Z,100321.19
2022-11-18T16:26:47.245Z,100328.47
2022-11-18T16:29:17.525Z,100325.19
2022-11-18T16:31:50.400Z,100329.75
2022-11-18T16:34:20.160Z,100335.16
2022-11-18T16:36:49.676Z,100330.56
2022-11-18T16:39:18.924Z,100333.50
2022-11-18T16:41:47.264Z,100325.69
2022-11-18T16:44:17.401Z,100338.34
2022-11-18T16:46:48.584Z,100339.38
2022-11-18T16:49:18.132Z,100343.97
2022-11-18T16:51:48.045Z,100347.47
2022-11-18T16:54:18.903Z,100356.13
2022-11-18T16:56:47.137Z,100351.81
2022-11-18T16:59:18.077Z,100352.84
2022-11-18T17:01:46.533Z,100357.44
2022-11-18T17:04:14.439Z,100357.66
2022-11-18T17:06:42.679Z,100357.66
2022-11-18T17:09:14.822Z,100356.84
2022-11-18T17:11:42.712Z,100354.97
2022-11-18T17:14:10.598Z,100356.03
2022-11-18T17:16:40.359Z,100357.09
2022-11-18T17:19:11.813Z,100363.53
2022-11-18T17:21:39.944Z,100367.06
2022-11-18T17:24:08.725Z,100367.88
2022-11-18T17:26:36.633Z,100375.94
2022-11-18T17:29:04.500Z,100370.81
2022-11-18T17:31:32.369Z,100371.63
2022-11-18T17:34:01.522Z,100374.31
2022-11-18T17:36:29.333Z,100368.94
2022-11-18T17:38:59.503Z,100381.59
2022-11-18T17:41:46.767Z,100382.41
2022-11-18T17:44:15.258Z,100376.19
2022-11-18T17:46:43.693Z,100378.06
2022-11-18T17:49:15.843Z,100381.59
2022-11-18T17:51:43.713Z,100388.03
2022-11-18T17:54:12.767Z,100386.63
2022-11-18T17:56:40.475Z,100394.47
2022-11-18T17:59:08.504Z,100394.47
2022-11-18T18:01:36.604Z,100392.59
2022-11-18T18:04:04.355Z,100403.38
2022-11-18T18:06:33.465Z,100396.34
2022-11-18T18:09:01.269Z,100406.06
2022-11-18T18:11:29.337Z,100404.19
2022-11-18T18:14:14.352Z,100389.81
2022-11-18T18:16:44.266Z,100409.91
2022-11-18T18:19:14.787Z,100411.53
2022-11-18T18:21:43.898Z,100410.72
2022-11-18T18:24:12.275Z,100411.22
2022-11-18T18:26:40.073Z,100414.72
2022-11-18T18:29:07.774Z,100418.47
2022-11-18T18:31:36.871Z,100415.78
2022-11-18T18:34:05.744Z,100417.41
2022-11-18T18:36:33.537Z,100412.03
2022-11-18T18:39:02.851Z,100413.06
2022-11-18T18:41:32.259Z,100408.75
2022-11-18T18:43:59.948Z,100418.72
2022-11-18T18:46:31.824Z,100422.47
2022-11-18T18:49:02.858Z,100411.44
2022-11-18T18:51:32.693Z,100420.69
2022-11-18T18:54:01.790Z,100425.59
2022-11-18T18:56:29.522Z,100424.53
2022-11-18T18:58:57.997Z,100425.59
2022-11-18T19:01:26.544Z,100430.97
2022-11-18T19:03:56.239Z,100425.59
2022-11-18T19:06:52.020Z,100435.53
2022-11-18T19:09:16.026Z,100434.72
2022-11-18T19:12:01.600Z,100423.28
2022-11-18T19:14:29.438Z,100432.84
2022-11-18T19:16:57.735Z,100435.28
2022-11-18T19:19:41.129Z,100434.25
2022-11-18T19:22:10.134Z,100441.25
2022-11-18T19:24:55.125Z,100437.50
2022-11-18T19:27:23.801Z,100434.47
2022-11-18T19:29:51.543Z,100441.25
2022-11-18T19:32:19.298Z,100441.50
2022-11-18T19:34:47.038Z,100450.63
2022-11-18T19:37:14.708Z,100456.03
2022-11-18T19:39:43.798Z,100450.63
2022-11-18T19:42:11.714Z,100462.22
2022-11-18T19:44:39.543Z,100453.56
2022-11-18T19:47:07.281Z,100458.97
2022-11-18T19:49:34.996Z,100460.03
2022-11-18T19:52:03.034Z,100466.22
2022-11-18T19:54:30.769Z,100472.66
2022-11-18T19:56:59.847Z,100465.66
2022-11-18T19:59:27.555Z,100468.34
2022-11-18T20:01:55.247Z,100473.72
2022-11-18T20:04:23.152Z,100459.34
2022-11-18T20:06:50.889Z,100468.81
2022-11-18T20:09:19.176Z,100473.97
2022-11-18T20:11:47.093Z,100475.03
2022-11-18T20:14:16.152Z,100480.41
2022-11-18T20:16:43.818Z,100478.78
2022-11-18T20:19:13.576Z,100483.09
2022-11-18T20:21:43.266Z,100481.47
2022-11-18T20:24:15.854Z,100482.53
2022-11-18T20:26:44.344Z,100478.19
2022-11-18T20:29:12.275Z,100478.19
2022-11-18T20:31:41.545Z,100480.88
2022-11-18T20:34:14.229Z,100482.53
2022-11-18T20:36:42.700Z,100482.75
2022-11-18T20:39:14.524Z,100484.06
2022-11-18T20:41:42.313Z,100496.72
2022-11-18T20:44:10.042Z,100487.81
2022-11-18T20:46:37.772Z,100495.31
2022-11-18T20:49:06.954Z,100499.06
2022-11-18T20:51:35.046Z,100495.56
2022-11-18T20:54:07.610Z,100500.34
2022-11-18T20:56:35.290Z,100506.31
2022-11-18T20:59:02.977Z,100512.28
2022-11-18T21:01:31.854Z,100498.13
2022-11-18T21:04:01.717Z,100499.31
2022-11-18T21:06:32.524Z,100509.25
2022-11-18T21:09:02.510Z,100502.22
2022-11-18T21:11:31.220Z,100505.97
2022-11-18T21:14:22.926Z,100514.63
2022-11-18T21:16:51.650Z,100515.69
2022-11-18T21:19:19.836Z,100511.38
2022-11-18T21:21:49.180Z,100521.31
2022-11-18T21:24:18.623Z,100517.81
2022-11-18T21:26:47.549Z,100517.22
2022-11-18T21:29:16.647Z,100516.41
2022-11-18T21:31:45.781Z,100517.22
2022-11-18T21:34:14.720Z,100514.53
2022-11-18T21:36:46.734Z,100517.22
2022-11-18T21:39:18.569Z,100528.22
2022-11-18T21:41:50.660Z,100522.03
2022-11-18T21:44:21.500Z,100514.19
2022-11-18T21:46:49.210Z,100535.72
2022-11-18T21:49:17.469Z,100536.78
2022-11-18T21:51:45.866Z,100540.28
2022-11-18T21:54:15.827Z,100544.00
2022-11-18T21:56:45.047Z,100542.38
2022-11-18T21:59:12.748Z,100539.09
2022-11-18T22:01:40.428Z,100542.84
2022-11-18T22:04:08.157Z,100545.53
2022-11-18T22:06:36.007Z,100551.97
2022-11-18T22:09:06.053Z,100545.78
2022-11-18T22:11:33.790Z,100551.16
2022-11-18T22:14:04.419Z,100559.81
2022-11-18T22:16:32.097Z,100555.72
2022-11-18T22:19:05.049Z,100557.38
2022-11-18T22:21:35.716Z,100570.59
2022-11-18T22:24:03.428Z,100565.22
2022-11-18T22:26:31.097Z,100563.34
2022-11-18T22:28:59.348Z,100566.03
2022-11-18T22:31:29.309Z,100569.78
2022-11-18T22:33:57.845Z,100558.53
2022-11-18T22:36:27.433Z,100563.81
2022-11-18T22:38:55.904Z,100568.38
2022-11-18T22:41:43.542Z,100569.41
2022-11-18T22:44:13.704Z,100570.47
2022-11-18T22:46:44.797Z,100563.59
2022-11-18T22:49:13.628Z,100575.84
2022-11-18T22:51:41.728Z,100581.47
2022-11-18T22:56:57.780Z,100581.72
2022-11-18T22:59:25.696Z,100584.41
2022-11-18T23:01:54.911Z,100588.16
2022-11-18T23:04:22.696Z,100596.47
2022-11-18T23:06:50.684Z,100596.22
2022-11-18T23:09:18.693Z,100596.94
2022-11-18T23:12:06.675Z,100604.53
2022-11-18T23:14:34.369Z,100612.84
2022-11-18T23:17:03.366Z,100610.38
2022-11-18T23:19:31.061Z,100607.69
2022-11-18T23:21:58.721Z,100621.16
2022-11-18T23:24:26.431Z,100617.66
2022-11-18T23:26:54.105Z,100624.78
2022-11-18T23:29:22.518Z,100624.78
2022-11-18T23:31:50.392Z,100632.28
2022-11-18T23:34:19.646Z,100626.66
2022-11-18T23:36:47.649Z,100640.34
2022-11-18T23:39:18.108Z,100631.69
2022-11-18T23:41:46.124Z,100642.44
2022-11-18T23:44:13.830Z,100637.28
2022-11-18T23:46:41.563Z,100642.69
2022-11-18T23:49:09.928Z,100643.97
2022-11-18T23:51:39.004Z,100645.84
2022-11-18T23:54:06.858Z,100647.72
2022-11-18T23:56:37.982Z,100654.72
2022-11-18T23:59:06.578Z,100660.34
